sensor_id;sensor_type;location;lat;lon;timestamp;temperature;humidity
26743;DHT22;14341;51.256;22.478;2022-12-18T00:01:12;-6.40;99.90
26743;DHT22;14341;51.256;22.478;2022-12-18T00:04:21;-6.30;99.90
26743;DHT22;14341;51.256;22.478;2022-12-18T00:07:26;-6.40;99.90
26743;DHT22;14341;51.256;22.478;2022-12-18T00:10:30;-6.40;99.90
26743;DHT22;14341;51.256;22.478;2022-12-18T00:13:33;-6.40;99.90
26743;DHT22;14341;51.256;22.478;2022-12-18T00:16:39;-6.50;99.90
26743;DHT22;14341;51.256;22.478;2022-12-18T00:19:43;-6.10;99.90
26743;DHT22;14341;51.256;22.478;2022-12-18T00:22:48;-6.20;99.90
26743;DHT22;14341;51.256;22.478;2022-12-18T00:25:52;-6.50;99.90
26743;DHT22;14341;51.256;22.478;2022-12-18T00:28:58;-6.50;99.90
26743;DHT22;14341;51.256;22.478;2022-12-18T00:32:04;-6.50;99.90
26743;DHT22;14341;51.256;22.478;2022-12-18T00:35:08;-6.50;99.90
26743;DHT22;14341;51.256;22.478;2022-12-18T00:38:13;-6.50;99.90
26743;DHT22;14341;51.256;22.478;2022-12-18T00:41:18;-6.50;99.90
26743;DHT22;14341;51.256;22.478;2022-12-18T00:44:36;-6.30;99.90
26743;DHT22;14341;51.256;22.478;2022-12-18T00:47:39;-6.50;99.90
26743;DHT22;14341;51.256;22.478;2022-12-18T00:50:43;-6.50;99.90
26743;DHT22;14341;51.256;22.478;2022-12-18T00:53:48;-6.60;99.90
26743;DHT22;14341;51.256;22.478;2022-12-18T00:56:52;-7.20;99.90
26743;DHT22;14341;51.256;22.478;2022-12-18T00:59:57;-6.60;99.90
26743;DHT22;14341;51.256;22.478;2022-12-18T01:03:00;-6.50;99.90
26743;DHT22;14341;51.256;22.478;2022-12-18T01:06:06;-4.10;99.90
26743;DHT22;14341;51.256;22.478;2022-12-18T01:09:11;-6.50;99.90
26743;DHT22;14341;51.256;22.478;2022-12-18T01:12:14;-6.50;99.90
26743;DHT22;14341;51.256;22.478;2022-12-18T01:15:18;-6.60;99.90
26743;DHT22;14341;51.256;22.478;2022-12-18T01:18:21;-6.60;99.90
26743;DHT22;14341;51.256;22.478;2022-12-18T01:21:25;-6.70;99.90
26743;DHT22;14341;51.256;22.478;2022-12-18T01:24:30;-6.70;99.90
26743;DHT22;14341;51.256;22.478;2022-12-18T01:27:34;-6.60;99.90
26743;DHT22;14341;51.256;22.478;2022-12-18T01:30:38;-6.10;99.90
26743;DHT22;14341;51.256;22.478;2022-12-18T01:33:41;-4.20;99.90
26743;DHT22;14341;51.256;22.478;2022-12-18T01:36:45;-6.60;99.90
26743;DHT22;14341;51.256;22.478;2022-12-18T01:39:49;-5.90;99.90
26743;DHT22;14341;51.256;22.478;2022-12-18T01:42:54;-6.40;99.90
26743;DHT22;14341;51.256;22.478;2022-12-18T01:45:59;-6.60;99.90
26743;DHT22;14341;51.256;22.478;2022-12-18T01:49:02;-6.50;99.90
26743;DHT22;14341;51.256;22.478;2022-12-18T01:52:06;-6.60;99.90
26743;DHT22;14341;51.256;22.478;2022-12-18T01:55:11;-6.60;99.90
26743;DHT22;14341;51.256;22.478;2022-12-18T01:58:16;-5.70;99.90
26743;DHT22;14341;51.256;22.478;2022-12-18T02:01:21;-6.50;99.90
26743;DHT22;14341;51.256;22.478;2022-12-18T02:04:27;-5.20;99.90
26743;DHT22;14341;51.256;22.478;2022-12-18T02:07:37;-5.80;99.90
26743;DHT22;14341;51.256;22.478;2022-12-18T02:10:59;-6.40;99.90
26743;DHT22;14341;51.256;22.478;2022-12-18T02:14:16;-6.20;99.90
26743;DHT22;14341;51.256;22.478;2022-12-18T02:17:23;-5.70;99.90
26743;DHT22;14341;51.256;22.478;2022-12-18T02:20:35;-6.40;99.90
26743;DHT22;14341;51.256;22.478;2022-12-18T02:23:48;-6.30;99.90
26743;DHT22;14341;51.256;22.478;2022-12-18T02:26:59;-6.30;99.90
26743;DHT22;14341;51.256;22.478;2022-12-18T02:30:06;-6.30;99.90
26743;DHT22;14341;51.256;22.478;2022-12-18T02:33:13;-6.30;99.90
26743;DHT22;14341;51.256;22.478;2022-12-18T02:36:20;-5.00;99.90
26743;DHT22;14341;51.256;22.478;2022-12-18T02:39:26;-6.30;99.90
26743;DHT22;14341;51.256;22.478;2022-12-18T02:42:38;-5.40;99.90
26743;DHT22;14341;51.256;22.478;2022-12-18T02:45:47;-5.90;99.90
26743;DHT22;14341;51.256;22.478;2022-12-18T02:48:53;-4.20;99.90
26743;DHT22;14341;51.256;22.478;2022-12-18T02:52:05;-5.60;99.90
26743;DHT22;14341;51.256;22.478;2022-12-18T02:55:18;-5.80;99.90
26743;DHT22;14341;51.256;22.478;2022-12-18T02:58:39;-4.50;99.90
26743;DHT22;14341;51.256;22.478;2022-12-18T03:01:54;-5.80;99.90
26743;DHT22;14341;51.256;22.478;2022-12-18T03:05:05;-6.10;99.90
26743;DHT22;14341;51.256;22.478;2022-12-18T03:08:17;-5.90;99.90
26743;DHT22;14341;51.256;22.478;2022-12-18T03:11:27;-4.20;99.90
26743;DHT22;14341;51.256;22.478;2022-12-18T03:14:55;-6.00;99.90
26743;DHT22;14341;51.256;22.478;2022-12-18T03:18:04;-6.00;99.90
26743;DHT22;14341;51.256;22.478;2022-12-18T03:21:10;-6.00;99.90
26743;DHT22;14341;51.256;22.478;2022-12-18T03:24:17;-6.00;99.90
26743;DHT22;14341;51.256;22.478;2022-12-18T03:27:23;-5.80;99.90
26743;DHT22;14341;51.256;22.478;2022-12-18T03:30:33;-5.30;99.90
26743;DHT22;14341;51.256;22.478;2022-12-18T03:33:41;-5.90;99.90
26743;DHT22;14341;51.256;22.478;2022-12-18T03:36:48;-5.90;99.90
26743;DHT22;14341;51.256;22.478;2022-12-18T03:39:52;-5.90;99.90
26743;DHT22;14341;51.256;22.478;2022-12-18T03:43:00;-5.80;99.90
26743;DHT22;14341;51.256;22.478;2022-12-18T03:46:14;-5.80;99.90
26743;DHT22;14341;51.256;22.478;2022-12-18T03:49:24;-4.10;99.90
26743;DHT22;14341;51.256;22.478;2022-12-18T03:52:36;-3.50;99.90
26743;DHT22;14341;51.256;22.478;2022-12-18T03:55:43;-4.10;99.90
26743;DHT22;14341;51.256;22.478;2022-12-18T03:58:48;-4.30;99.90
26743;DHT22;14341;51.256;22.478;2022-12-18T04:01:59;-5.30;99.90
26743;DHT22;14341;51.256;22.478;2022-12-18T04:05:05;-5.60;99.90
26743;DHT22;14341;51.256;22.478;2022-12-18T04:08:13;-5.50;99.90
26743;DHT22;14341;51.256;22.478;2022-12-18T04:11:25;-5.50;99.90
26743;DHT22;14341;51.256;22.478;2022-12-18T04:14:29;-4.60;99.90
26743;DHT22;14341;51.256;22.478;2022-12-18T04:17:46;-5.50;99.90
26743;DHT22;14341;51.256;22.478;2022-12-18T04:20:52;-5.50;99.90
26743;DHT22;14341;51.256;22.478;2022-12-18T04:24:00;-4.10;99.90
26743;DHT22;14341;51.256;22.478;2022-12-18T04:27:04;-5.40;99.90
26743;DHT22;14341;51.256;22.478;2022-12-18T04:30:14;-2.80;99.90
26743;DHT22;14341;51.256;22.478;2022-12-18T04:33:18;-5.50;99.90
26743;DHT22;14341;51.256;22.478;2022-12-18T04:36:22;-4.50;99.90
26743;DHT22;14341;51.256;22.478;2022-12-18T04:39:29;-5.10;99.90
26743;DHT22;14341;51.256;22.478;2022-12-18T04:42:39;-4.90;99.90
26743;DHT22;14341;51.256;22.478;2022-12-18T04:45:43;-5.10;99.90
26743;DHT22;14341;51.256;22.478;2022-12-18T04:48:47;-4.70;99.90
26743;DHT22;14341;51.256;22.478;2022-12-18T04:51:50;-4.70;99.90
26743;DHT22;14341;51.256;22.478;2022-12-18T04:54:54;-5.20;99.90
26743;DHT22;14341;51.256;22.478;2022-12-18T04:57:58;-5.40;99.90
26743;DHT22;14341;51.256;22.478;2022-12-18T05:01:01;-5.40;99.90
26743;DHT22;14341;51.256;22.478;2022-12-18T05:04:06;-4.20;99.90
26743;DHT22;14341;51.256;22.478;2022-12-18T05:07:09;-5.20;99.90
26743;DHT22;14341;51.256;22.478;2022-12-18T05:10:13;-5.40;99.90
26743;DHT22;14341;51.256;22.478;2022-12-18T05:13:17;-5.50;99.90
26743;DHT22;14341;51.256;22.478;2022-12-18T05:16:20;-4.70;99.90
26743;DHT22;14341;51.256;22.478;2022-12-18T05:19:25;-5.10;99.90
26743;DHT22;14341;51.256;22.478;2022-12-18T05:22:28;-5.50;99.90
26743;DHT22;14341;51.256;22.478;2022-12-18T05:25:31;-5.50;99.90
26743;DHT22;14341;51.256;22.478;2022-12-18T05:28:36;-5.50;99.90
26743;DHT22;14341;51.256;22.478;2022-12-18T05:31:39;-4.10;99.90
26743;DHT22;14341;51.256;22.478;2022-12-18T05:34:45;-5.50;99.90
26743;DHT22;14341;51.256;22.478;2022-12-18T05:37:48;-5.50;99.90
26743;DHT22;14341;51.256;22.478;2022-12-18T05:40:52;-5.00;99.90
26743;DHT22;14341;51.256;22.478;2022-12-18T05:43:55;-5.60;99.90
26743;DHT22;14341;51.256;22.478;2022-12-18T05:46:59;-5.50;99.90
26743;DHT22;14341;51.256;22.478;2022-12-18T05:50:04;-4.10;99.90
26743;DHT22;14341;51.256;22.478;2022-12-18T05:53:08;-5.60;99.90
26743;DHT22;14341;51.256;22.478;2022-12-18T05:56:14;-4.70;99.90
26743;DHT22;14341;51.256;22.478;2022-12-18T05:59:17;-5.60;99.90
26743;DHT22;14341;51.256;22.478;2022-12-18T06:02:20;-4.50;99.90
26743;DHT22;14341;51.256;22.478;2022-12-18T06:05:25;-5.60;99.90
26743;DHT22;14341;51.256;22.478;2022-12-18T06:08:29;-5.60;99.90
26743;DHT22;14341;51.256;22.478;2022-12-18T06:11:32;-5.60;99.90
26743;DHT22;14341;51.256;22.478;2022-12-18T06:14:35;-4.80;99.90
26743;DHT22;14341;51.256;22.478;2022-12-18T06:17:38;-5.70;99.90
26743;DHT22;14341;51.256;22.478;2022-12-18T06:23:46;-5.70;99.90
26743;DHT22;14341;51.256;22.478;2022-12-18T06:26:50;-4.20;99.90
26743;DHT22;14341;51.256;22.478;2022-12-18T06:29:53;-4.80;99.90
26743;DHT22;14341;51.256;22.478;2022-12-18T06:32:57;-5.50;99.90
26743;DHT22;14341;51.256;22.478;2022-12-18T06:36:03;-5.60;99.90
26743;DHT22;14341;51.256;22.478;2022-12-18T06:39:06;-5.50;99.90
26743;DHT22;14341;51.256;22.478;2022-12-18T06:42:10;-4.90;99.90
26743;DHT22;14341;51.256;22.478;2022-12-18T06:45:16;-5.50;99.90
26743;DHT22;14341;51.256;22.478;2022-12-18T06:48:19;-2.60;99.90
26743;DHT22;14341;51.256;22.478;2022-12-18T06:51:24;-5.30;99.90
26743;DHT22;14341;51.256;22.478;2022-12-18T06:54:28;-3.50;99.90
26743;DHT22;14341;51.256;22.478;2022-12-18T06:57:32;-5.30;99.90
26743;DHT22;14341;51.256;22.478;2022-12-18T07:00:35;-3.20;99.90
26743;DHT22;14341;51.256;22.478;2022-12-18T07:03:39;-4.80;99.90
26743;DHT22;14341;51.256;22.478;2022-12-18T07:06:44;-5.30;99.90
26743;DHT22;14341;51.256;22.478;2022-12-18T07:09:49;-5.30;99.90
26743;DHT22;14341;51.256;22.478;2022-12-18T07:12:53;-4.60;99.90
26743;DHT22;14341;51.256;22.478;2022-12-18T07:16:03;-3.70;99.90
26743;DHT22;14341;51.256;22.478;2022-12-18T07:19:13;-5.00;99.90
26743;DHT22;14341;51.256;22.478;2022-12-18T07:22:18;-4.10;99.90
26743;DHT22;14341;51.256;22.478;2022-12-18T07:25:22;-5.00;99.90
26743;DHT22;14341;51.256;22.478;2022-12-18T07:28:25;-5.00;99.90
26743;DHT22;14341;51.256;22.478;2022-12-18T07:31:28;-5.00;99.90
26743;DHT22;14341;51.256;22.478;2022-12-18T07:34:32;-4.90;99.90
26743;DHT22;14341;51.256;22.478;2022-12-18T07:37:37;-4.80;99.90
26743;DHT22;14341;51.256;22.478;2022-12-18T07:40:45;-4.80;99.90
26743;DHT22;14341;51.256;22.478;2022-12-18T07:43:53;-4.70;99.90
26743;DHT22;14341;51.256;22.478;2022-12-18T07:46:57;-4.60;99.90
26743;DHT22;14341;51.256;22.478;2022-12-18T07:50:01;-4.70;99.90
26743;DHT22;14341;51.256;22.478;2022-12-18T07:53:06;-4.60;99.90
26743;DHT22;14341;51.256;22.478;2022-12-18T07:56:11;-3.50;99.90
26743;DHT22;14341;51.256;22.478;2022-12-18T07:59:32;-1.50;99.90
26743;DHT22;14341;51.256;22.478;2022-12-18T08:02:35;-2.20;99.90
26743;DHT22;14341;51.256;22.478;2022-12-18T08:05:39;-4.30;99.90
26743;DHT22;14341;51.256;22.478;2022-12-18T08:08:44;-2.70;99.90
26743;DHT22;14341;51.256;22.478;2022-12-18T08:11:47;-4.40;99.90
26743;DHT22;14341;51.256;22.478;2022-12-18T08:14:51;-4.50;99.90
26743;DHT22;14341;51.256;22.478;2022-12-18T08:17:56;-3.20;99.90
26743;DHT22;14341;51.256;22.478;2022-12-18T08:21:08;-4.40;99.90
26743;DHT22;14341;51.256;22.478;2022-12-18T08:24:13;-4.40;99.90
26743;DHT22;14341;51.256;22.478;2022-12-18T08:27:16;-4.40;99.90
26743;DHT22;14341;51.256;22.478;2022-12-18T08:30:35;-1.80;99.90
26743;DHT22;14341;51.256;22.478;2022-12-18T08:33:40;-2.10;99.90
26743;DHT22;14341;51.256;22.478;2022-12-18T08:36:44;-1.90;99.90
26743;DHT22;14341;51.256;22.478;2022-12-18T08:42:53;-4.10;99.90
26743;DHT22;14341;51.256;22.478;2022-12-18T08:46:16;-2.30;99.90
26743;DHT22;14341;51.256;22.478;2022-12-18T08:49:20;-4.10;99.90
26743;DHT22;14341;51.256;22.478;2022-12-18T08:52:23;-3.50;99.90
26743;DHT22;14341;51.256;22.478;2022-12-18T08:55:28;-4.00;99.90
26743;DHT22;14341;51.256;22.478;2022-12-18T08:58:31;-3.90;99.90
26743;DHT22;14341;51.256;22.478;2022-12-18T09:01:34;-3.90;99.90
26743;DHT22;14341;51.256;22.478;2022-12-18T09:04:38;-3.80;99.90
26743;DHT22;14341;51.256;22.478;2022-12-18T09:07:41;-3.90;99.90
26743;DHT22;14341;51.256;22.478;2022-12-18T09:10:48;-3.90;99.90
26743;DHT22;14341;51.256;22.478;2022-12-18T09:13:53;-2.20;99.50
26743;DHT22;14341;51.256;22.478;2022-12-18T09:16:56;-4.00;98.00
26743;DHT22;14341;51.256;22.478;2022-12-18T09:20:00;-3.00;99.90
26743;DHT22;14341;51.256;22.478;2022-12-18T09:23:03;-1.80;98.90
26743;DHT22;14341;51.256;22.478;2022-12-18T09:26:08;-2.80;99.20
26743;DHT22;14341;51.256;22.478;2022-12-18T09:29:11;-4.00;95.80
26743;DHT22;14341;51.256;22.478;2022-12-18T09:32:15;-3.90;93.90
26743;DHT22;14341;51.256;22.478;2022-12-18T09:35:23;-1.90;97.00
26743;DHT22;14341;51.256;22.478;2022-12-18T09:38:26;-4.30;96.20
26743;DHT22;14341;51.256;22.478;2022-12-18T09:41:41;-4.30;94.50
26743;DHT22;14341;51.256;22.478;2022-12-18T09:44:49;-4.20;96.20
26743;DHT22;14341;51.256;22.478;2022-12-18T09:47:54;-4.20;93.60
26743;DHT22;14341;51.256;22.478;2022-12-18T09:51:01;-3.00;92.70
26743;DHT22;14341;51.256;22.478;2022-12-18T09:54:12;-2.60;93.20
26743;DHT22;14341;51.256;22.478;2022-12-18T09:57:22;-4.10;92.80
26743;DHT22;14341;51.256;22.478;2022-12-18T10:00:27;-3.60;92.30
26743;DHT22;14341;51.256;22.478;2022-12-18T10:03:32;-4.20;90.70
26743;DHT22;14341;51.256;22.478;2022-12-18T10:06:41;-3.80;90.30
26743;DHT22;14341;51.256;22.478;2022-12-18T10:09:51;-4.20;88.70
26743;DHT22;14341;51.256;22.478;2022-12-18T10:13:04;-4.00;90.00
26743;DHT22;14341;51.256;22.478;2022-12-18T10:16:12;-4.20;90.90
26743;DHT22;14341;51.256;22.478;2022-12-18T10:19:30;-3.60;90.80
26743;DHT22;14341;51.256;22.478;2022-12-18T10:22:48;-4.20;85.80
26743;DHT22;14341;51.256;22.478;2022-12-18T10:25:59;-4.10;85.60
26743;DHT22;14341;51.256;22.478;2022-12-18T10:29:09;-4.10;83.40
26743;DHT22;14341;51.256;22.478;2022-12-18T10:32:16;-4.10;79.90
26743;DHT22;14341;51.256;22.478;2022-12-18T10:35:22;-1.90;79.50
26743;DHT22;14341;51.256;22.478;2022-12-18T10:38:27;-4.10;76.30
26743;DHT22;14341;51.256;22.478;2022-12-18T10:41:31;-4.20;73.50
26743;DHT22;14341;51.256;22.478;2022-12-18T10:44:35;-4.20;67.80
26743;DHT22;14341;51.256;22.478;2022-12-18T10:47:43;-4.00;70.80
26743;DHT22;14341;51.256;22.478;2022-12-18T10:50:49;-4.10;61.40
26743;DHT22;14341;51.256;22.478;2022-12-18T10:54:15;-4.20;58.40
26743;DHT22;14341;51.256;22.478;2022-12-18T10:57:34;-4.20;60.00
26743;DHT22;14341;51.256;22.478;2022-12-18T11:00:41;-4.30;58.90
26743;DHT22;14341;51.256;22.478;2022-12-18T11:03:46;-1.90;60.60
26743;DHT22;14341;51.256;22.478;2022-12-18T11:06:55;-4.30;64.60
26743;DHT22;14341;51.256;22.478;2022-12-18T11:10:15;-2.30;65.70
26743;DHT22;14341;51.256;22.478;2022-12-18T11:13:21;-4.20;60.30
26743;DHT22;14341;51.256;22.478;2022-12-18T11:16:26;-4.20;56.00
26743;DHT22;14341;51.256;22.478;2022-12-18T11:19:33;-4.00;61.80
26743;DHT22;14341;51.256;22.478;2022-12-18T11:22:37;-4.40;62.90
26743;DHT22;14341;51.256;22.478;2022-12-18T11:25:51;-4.40;61.10
26743;DHT22;14341;51.256;22.478;2022-12-18T11:29:09;-4.50;63.20
26743;DHT22;14341;51.256;22.478;2022-12-18T11:32:29;-4.50;60.60
26743;DHT22;14341;51.256;22.478;2022-12-18T11:35:45;-4.70;69.30
26743;DHT22;14341;51.256;22.478;2022-12-18T11:38:52;-4.70;72.30
26743;DHT22;14341;51.256;22.478;2022-12-18T11:42:00;-4.70;79.90
26743;DHT22;14341;51.256;22.478;2022-12-18T11:45:26;-4.70;81.50
26743;DHT22;14341;51.256;22.478;2022-12-18T11:48:36;-4.50;78.30
26743;DHT22;14341;51.256;22.478;2022-12-18T11:51:47;-4.70;78.10
26743;DHT22;14341;51.256;22.478;2022-12-18T11:54:53;-4.70;75.50
26743;DHT22;14341;51.256;22.478;2022-12-18T11:58:03;-4.90;73.80
26743;DHT22;14341;51.256;22.478;2022-12-18T12:01:16;-4.70;75.70
26743;DHT22;14341;51.256;22.478;2022-12-18T12:04:37;-3.60;72.40
26743;DHT22;14341;51.256;22.478;2022-12-18T12:07:46;-5.00;76.10
26743;DHT22;14341;51.256;22.478;2022-12-18T12:11:00;-4.80;70.80
26743;DHT22;14341;51.256;22.478;2022-12-18T12:14:17;-5.20;76.10
26743;DHT22;14341;51.256;22.478;2022-12-18T12:17:32;-5.10;81.90
26743;DHT22;14341;51.256;22.478;2022-12-18T12:20:47;-5.10;76.00
26743;DHT22;14341;51.256;22.478;2022-12-18T12:24:00;-5.10;74.10
26743;DHT22;14341;51.256;22.478;2022-12-18T12:27:16;-5.10;72.40
26743;DHT22;14341;51.256;22.478;2022-12-18T12:30:32;-5.20;73.90
26743;DHT22;14341;51.256;22.478;2022-12-18T12:33:45;-4.90;73.00
26743;DHT22;14341;51.256;22.478;2022-12-18T12:37:04;-5.50;82.50
26743;DHT22;14341;51.256;22.478;2022-12-18T12:40:16;-5.50;83.40
26743;DHT22;14341;51.256;22.478;2022-12-18T12:43:43;-5.50;88.10
26743;DHT22;14341;51.256;22.478;2022-12-18T12:47:14;-5.60;90.90
26743;DHT22;14341;51.256;22.478;2022-12-18T12:50:21;-5.50;90.90
26743;DHT22;14341;51.256;22.478;2022-12-18T12:53:31;-5.40;90.90
26743;DHT22;14341;51.256;22.478;2022-12-18T12:56:45;-5.60;91.90
26743;DHT22;14341;51.256;22.478;2022-12-18T12:59:57;-5.70;92.10
26743;DHT22;14341;51.256;22.478;2022-12-18T13:03:11;-4.70;96.00
26743;DHT22;14341;51.256;22.478;2022-12-18T13:06:23;-5.70;96.90
26743;DHT22;14341;51.256;22.478;2022-12-18T13:09:33;-5.70;96.10
26743;DHT22;14341;51.256;22.478;2022-12-18T13:12:51;-5.60;96.00
26743;DHT22;14341;51.256;22.478;2022-12-18T13:16:05;-5.70;95.90
26743;DHT22;14341;51.256;22.478;2022-12-18T13:19:21;-5.90;97.60
26743;DHT22;14341;51.256;22.478;2022-12-18T13:22:30;-5.60;99.80
26743;DHT22;14341;51.256;22.478;2022-12-18T13:25:37;-4.20;98.80
26743;DHT22;14341;51.256;22.478;2022-12-18T13:28:52;-5.80;99.60
26743;DHT22;14341;51.256;22.478;2022-12-18T13:32:00;-5.10;99.90
26743;DHT22;14341;51.256;22.478;2022-12-18T13:35:38;-5.90;99.90
26743;DHT22;14341;51.256;22.478;2022-12-18T13:38:42;-6.00;99.90
26743;DHT22;14341;51.256;22.478;2022-12-18T13:41:49;-5.90;99.90
26743;DHT22;14341;51.256;22.478;2022-12-18T13:44:54;-6.10;99.90
26743;DHT22;14341;51.256;22.478;2022-12-18T13:47:58;-6.20;99.90
26743;DHT22;14341;51.256;22.478;2022-12-18T13:51:04;-5.80;99.90
26743;DHT22;14341;51.256;22.478;2022-12-18T13:54:18;-6.20;99.90
26743;DHT22;14341;51.256;22.478;2022-12-18T13:57:30;-6.20;99.90
26743;DHT22;14341;51.256;22.478;2022-12-18T14:00:33;-6.10;99.90
26743;DHT22;14341;51.256;22.478;2022-12-18T14:03:37;-6.20;99.90
26743;DHT22;14341;51.256;22.478;2022-12-18T14:06:46;-5.00;99.90
26743;DHT22;14341;51.256;22.478;2022-12-18T14:09:51;-6.30;99.90
26743;DHT22;14341;51.256;22.478;2022-12-18T14:13:10;-6.30;99.90
26743;DHT22;14341;51.256;22.478;2022-12-18T14:16:17;-6.30;99.90
26743;DHT22;14341;51.256;22.478;2022-12-18T14:19:21;-6.20;99.90
26743;DHT22;14341;51.256;22.478;2022-12-18T14:22:26;-6.30;99.90
26743;DHT22;14341;51.256;22.478;2022-12-18T14:25:31;-6.30;99.90
26743;DHT22;14341;51.256;22.478;2022-12-18T14:28:43;-6.30;99.90
26743;DHT22;14341;51.256;22.478;2022-12-18T14:31:50;-6.30;99.90
26743;DHT22;14341;51.256;22.478;2022-12-18T14:35:13;-5.60;99.90
26743;DHT22;14341;51.256;22.478;2022-12-18T14:38:26;-5.80;99.90
26743;DHT22;14341;51.256;22.478;2022-12-18T14:41:30;-6.10;99.90
26743;DHT22;14341;51.256;22.478;2022-12-18T14:44:36;-5.80;99.90
26743;DHT22;14341;51.256;22.478;2022-12-18T14:48:00;-6.40;99.90
26743;DHT22;14341;51.256;22.478;2022-12-18T14:51:06;-6.20;99.90
26743;DHT22;14341;51.256;22.478;2022-12-18T14:54:18;-6.40;99.90
26743;DHT22;14341;51.256;22.478;2022-12-18T14:57:23;-6.50;99.90
26743;DHT22;14341;51.256;22.478;2022-12-18T15:00:30;-6.40;99.90
26743;DHT22;14341;51.256;22.478;2022-12-18T15:03:34;-3.90;99.90
26743;DHT22;14341;51.256;22.478;2022-12-18T15:06:38;-6.40;99.90
26743;DHT22;14341;51.256;22.478;2022-12-18T15:10:01;-5.90;99.90
26743;DHT22;14341;51.256;22.478;2022-12-18T15:13:20;-6.40;99.90
26743;DHT22;14341;51.256;22.478;2022-12-18T15:16:26;-6.40;99.90
26743;DHT22;14341;51.256;22.478;2022-12-18T15:19:38;-6.40;99.90
26743;DHT22;14341;51.256;22.478;2022-12-18T15:22:42;-6.50;99.90
26743;DHT22;14341;51.256;22.478;2022-12-18T15:25:46;-6.40;99.90
26743;DHT22;14341;51.256;22.478;2022-12-18T15:28:51;-6.50;99.90
26743;DHT22;14341;51.256;22.478;2022-12-18T15:32:05;-6.50;99.90
26743;DHT22;14341;51.256;22.478;2022-12-18T15:35:21;-6.50;99.90
26743;DHT22;14341;51.256;22.478;2022-12-18T15:38:24;-6.60;99.90
26743;DHT22;14341;51.256;22.478;2022-12-18T15:41:31;-5.60;99.90
26743;DHT22;14341;51.256;22.478;2022-12-18T15:44:37;-5.30;99.90
26743;DHT22;14341;51.256;22.478;2022-12-18T15:47:41;-6.50;99.90
26743;DHT22;14341;51.256;22.478;2022-12-18T15:50:45;-6.60;99.90
26743;DHT22;14341;51.256;22.478;2022-12-18T15:53:51;-6.70;99.90
26743;DHT22;14341;51.256;22.478;2022-12-18T15:56:55;-6.00;99.90
26743;DHT22;14341;51.256;22.478;2022-12-18T16:00:16;-6.80;99.90
26743;DHT22;14341;51.256;22.478;2022-12-18T16:03:21;-6.70;99.90
26743;DHT22;14341;51.256;22.478;2022-12-18T16:06:25;-6.70;99.90
26743;DHT22;14341;51.256;22.478;2022-12-18T16:09:49;-6.80;99.90
26743;DHT22;14341;51.256;22.478;2022-12-18T16:12:52;-6.80;99.90
26743;DHT22;14341;51.256;22.478;2022-12-18T16:15:55;-6.90;99.90
26743;DHT22;14341;51.256;22.478;2022-12-18T16:22:04;-7.10;99.90
26743;DHT22;14341;51.256;22.478;2022-12-18T16:25:09;-7.20;99.90
26743;DHT22;14341;51.256;22.478;2022-12-18T16:28:17;-7.20;99.90
26743;DHT22;14341;51.256;22.478;2022-12-18T16:31:22;-4.60;99.90
26743;DHT22;14341;51.256;22.478;2022-12-18T16:34:28;-7.30;99.90
26743;DHT22;14341;51.256;22.478;2022-12-18T16:37:36;-6.60;99.90
26743;DHT22;14341;51.256;22.478;2022-12-18T16:40:39;-6.50;99.90
26743;DHT22;14341;51.256;22.478;2022-12-18T16:44:03;-5.30;99.90
26743;DHT22;14341;51.256;22.478;2022-12-18T16:47:08;-5.20;99.90
26743;DHT22;14341;51.256;22.478;2022-12-18T16:50:17;-7.30;99.90
26743;DHT22;14341;51.256;22.478;2022-12-18T16:53:21;-7.20;99.90
26743;DHT22;14341;51.256;22.478;2022-12-18T16:56:24;-7.20;99.90
26743;DHT22;14341;51.256;22.478;2022-12-18T16:59:28;-7.20;99.90
26743;DHT22;14341;51.256;22.478;2022-12-18T17:02:35;-6.50;99.90
26743;DHT22;14341;51.256;22.478;2022-12-18T17:05:41;-7.00;99.90
26743;DHT22;14341;51.256;22.478;2022-12-18T17:08:54;-6.30;99.90
26743;DHT22;14341;51.256;22.478;2022-12-18T17:12:01;-7.10;99.90
26743;DHT22;14341;51.256;22.478;2022-12-18T17:15:07;-7.20;99.90
26743;DHT22;14341;51.256;22.478;2022-12-18T17:18:10;-7.00;99.90
26743;DHT22;14341;51.256;22.478;2022-12-18T17:24:20;-6.10;99.90
26743;DHT22;14341;51.256;22.478;2022-12-18T17:27:23;-6.90;99.90
26743;DHT22;14341;51.256;22.478;2022-12-18T17:30:30;-5.90;99.90
26743;DHT22;14341;51.256;22.478;2022-12-18T17:33:34;-6.90;99.90
26743;DHT22;14341;51.256;22.478;2022-12-18T17:36:39;-6.00;99.90
26743;DHT22;14341;51.256;22.478;2022-12-18T17:39:44;-4.20;99.90
26743;DHT22;14341;51.256;22.478;2022-12-18T17:42:48;-4.30;99.90
26743;DHT22;14341;51.256;22.478;2022-12-18T17:45:54;-4.30;99.90
26743;DHT22;14341;51.256;22.478;2022-12-18T17:49:01;-8.60;99.90
26743;DHT22;14341;51.256;22.478;2022-12-18T17:52:08;-5.20;99.90
26743;DHT22;14341;51.256;22.478;2022-12-18T17:55:11;-5.70;99.90
26743;DHT22;14341;51.256;22.478;2022-12-18T17:58:15;-7.10;99.90
26743;DHT22;14341;51.256;22.478;2022-12-18T18:01:22;-6.10;99.90
26743;DHT22;14341;51.256;22.478;2022-12-18T18:04:26;-6.50;99.90
26743;DHT22;14341;51.256;22.478;2022-12-18T18:07:31;-7.10;99.90
26743;DHT22;14341;51.256;22.478;2022-12-18T18:10:35;-7.10;99.90
26743;DHT22;14341;51.256;22.478;2022-12-18T18:13:39;-7.20;99.90
26743;DHT22;14341;51.256;22.478;2022-12-18T18:16:59;-5.20;99.90
26743;DHT22;14341;51.256;22.478;2022-12-18T18:20:06;-7.20;99.90
26743;DHT22;14341;51.256;22.478;2022-12-18T18:23:11;-7.20;99.90
26743;DHT22;14341;51.256;22.478;2022-12-18T18:26:14;-7.20;99.90
26743;DHT22;14341;51.256;22.478;2022-12-18T18:29:19;-7.20;99.90
26743;DHT22;14341;51.256;22.478;2022-12-18T18:32:23;-6.80;99.90
26743;DHT22;14341;51.256;22.478;2022-12-18T18:35:27;-7.30;99.90
26743;DHT22;14341;51.256;22.478;2022-12-18T18:38:52;-6.50;99.90
26743;DHT22;14341;51.256;22.478;2022-12-18T18:41:55;-7.30;99.90
26743;DHT22;14341;51.256;22.478;2022-12-18T18:44:58;-7.30;99.90
26743;DHT22;14341;51.256;22.478;2022-12-18T18:48:02;-7.30;99.90
26743;DHT22;14341;51.256;22.478;2022-12-18T18:51:07;-7.30;99.90
26743;DHT22;14341;51.256;22.478;2022-12-18T18:54:19;-6.40;99.90
26743;DHT22;14341;51.256;22.478;2022-12-18T18:57:24;-7.30;99.90
26743;DHT22;14341;51.256;22.478;2022-12-18T19:00:33;-7.30;99.90
26743;DHT22;14341;51.256;22.478;2022-12-18T19:03:42;-6.80;99.90
26743;DHT22;14341;51.256;22.478;2022-12-18T19:06:49;-7.20;99.90
26743;DHT22;14341;51.256;22.478;2022-12-18T19:09:58;-6.10;99.90
26743;DHT22;14341;51.256;22.478;2022-12-18T19:13:08;-7.20;99.90
26743;DHT22;14341;51.256;22.478;2022-12-18T19:16:27;-6.70;99.90
26743;DHT22;14341;51.256;22.478;2022-12-18T19:19:31;-6.20;99.90
26743;DHT22;14341;51.256;22.478;2022-12-18T19:22:34;-7.10;99.90
26743;DHT22;14341;51.256;22.478;2022-12-18T19:28:44;-7.10;99.90
26743;DHT22;14341;51.256;22.478;2022-12-18T19:31:47;-7.20;99.90
26743;DHT22;14341;51.256;22.478;2022-12-18T19:34:52;-7.10;99.90
26743;DHT22;14341;51.256;22.478;2022-12-18T19:37:56;-7.10;99.90
26743;DHT22;14341;51.256;22.478;2022-12-18T19:41:03;-7.10;99.90